createdAt,value
2022-10-04T00:02:33.934Z,6.80
2022-10-04T00:05:07.480Z,6.90
2022-10-04T00:07:39.006Z,6.90
2022-10-04T00:10:18.202Z,6.90
2022-10-04T00:12:49.988Z,6.90
2022-10-04T00:15:26.141Z,6.90
2022-10-04T00:18:19.953Z,6.80
2022-10-04T00:21:01.106Z,6.70
2022-10-04T00:23:41.817Z,6.70
2022-10-04T00:26:36.138Z,6.70
2022-10-04T00:29:30.127Z,6.60
2022-10-04T00:32:26.804Z,6.60
2022-10-04T00:34:55.306Z,6.60
2022-10-04T00:37:25.374Z,6.60
2022-10-04T00:40:03.690Z,6.50
2022-10-04T00:42:47.327Z,6.40
2022-10-04T00:45:27.428Z,6.30
2022-10-04T00:48:31.547Z,6.20
2022-10-04T00:51:05.872Z,6.20
2022-10-04T00:54:02.147Z,6.10
2022-10-04T00:56:36.675Z,6.00
2022-10-04T00:59:23.232Z,5.90
2022-10-04T01:01:55.813Z,5.90
2022-10-04T01:04:30.921Z,6.00
2022-10-04T01:07:01.146Z,6.00
2022-10-04T01:09:30.342Z,6.10
2022-10-04T01:12:04.620Z,6.00
2022-10-04T01:14:39.961Z,6.10
2022-10-04T01:17:09.957Z,6.10
2022-10-04T01:19:41.292Z,6.00
2022-10-04T01:22:15.956Z,6.00
2022-10-04T01:24:45.944Z,5.90
2022-10-04T01:27:34.991Z,5.80
2022-10-04T01:30:07.527Z,5.70
2022-10-04T01:32:38.449Z,5.70
2022-10-04T01:35:09.308Z,5.70
2022-10-04T01:37:39.298Z,5.70
2022-10-04T01:40:10.631Z,5.70
2022-10-04T01:42:44.505Z,5.60
2022-10-04T01:45:18.427Z,5.70
2022-10-04T01:47:53.973Z,5.70
2022-10-04T01:50:28.336Z,5.70
2022-10-04T01:53:01.335Z,5.80
2022-10-04T01:55:35.045Z,5.80
2022-10-04T01:58:09.369Z,5.90
2022-10-04T02:00:40.283Z,5.90
2022-10-04T02:03:14.703Z,5.90
2022-10-04T02:05:48.702Z,5.90
2022-10-04T02:08:19.298Z,5.90
2022-10-04T02:10:51.073Z,5.80
2022-10-04T02:13:19.929Z,5.80
2022-10-04T02:15:48.420Z,5.80
2022-10-04T02:18:20.498Z,5.70
2022-10-04T02:20:50.037Z,5.70
2022-10-04T02:23:19.861Z,5.70
2022-10-04T02:25:49.193Z,5.70
2022-10-04T02:28:18.705Z,5.60
2022-10-04T02:31:09.777Z,5.60
2022-10-04T02:33:41.177Z,5.60
2022-10-04T02:36:10.300Z,5.50
2022-10-04T02:38:43.086Z,5.40
2022-10-04T02:41:22.098Z,5.40
2022-10-04T02:43:55.345Z,5.30
2022-10-04T02:46:28.833Z,5.30
2022-10-04T02:48:59.296Z,5.30
2022-10-04T02:51:31.968Z,5.30
2022-10-04T02:54:06.494Z,5.30
2022-10-04T02:56:37.656Z,5.30
2022-10-04T02:59:06.901Z,5.40
2022-10-04T03:01:44.629Z,5.50
2022-10-04T03:04:14.998Z,5.50
2022-10-04T03:06:44.927Z,5.60
2022-10-04T03:09:13.032Z,5.60
2022-10-04T03:11:43.305Z,5.60
2022-10-04T03:14:15.444Z,5.60
2022-10-04T03:16:46.382Z,5.60
2022-10-04T03:19:16.765Z,5.60
2022-10-04T03:21:46.740Z,5.60
2022-10-04T03:24:19.441Z,5.60
2022-10-04T03:26:52.441Z,5.60
2022-10-04T03:29:22.662Z,5.60
2022-10-04T03:31:53.369Z,5.60
2022-10-04T03:34:24.338Z,5.70
2022-10-04T03:36:56.135Z,5.60
2022-10-04T03:39:29.400Z,5.70
2022-10-04T03:41:58.857Z,5.70
2022-10-04T03:44:26.720Z,5.70
2022-10-04T03:46:54.628Z,5.60
2022-10-04T03:49:38.005Z,5.60
2022-10-04T03:52:08.297Z,5.50
2022-10-04T03:54:37.009Z,5.50
2022-10-04T03:57:07.590Z,5.40
2022-10-04T03:59:36.435Z,5.40
2022-10-04T04:02:11.071Z,5.50
2022-10-04T04:04:50.320Z,5.50
2022-10-04T04:07:25.393Z,5.50
2022-10-04T04:09:58.133Z,5.60
2022-10-04T04:12:39.460Z,5.60
2022-10-04T04:15:11.529Z,5.60
2022-10-04T04:17:41.916Z,5.60
2022-10-04T04:20:21.957Z,5.70
2022-10-04T04:22:58.173Z,5.70
2022-10-04T04:25:27.690Z,5.70
2022-10-04T04:28:04.415Z,5.70
2022-10-04T04:30:35.639Z,5.70
2022-10-04T04:33:11.061Z,5.70
2022-10-04T04:35:38.861Z,5.80
2022-10-04T04:38:15.246Z,5.80
2022-10-04T04:40:43.649Z,5.90
2022-10-04T04:43:17.778Z,6.00
2022-10-04T04:46:02.858Z,6.00
2022-10-04T04:48:38.050Z,6.10
2022-10-04T04:51:06.301Z,6.10
2022-10-04T04:53:34.240Z,6.20
2022-10-04T04:56:05.055Z,6.20
2022-10-04T04:58:36.865Z,6.20
2022-10-04T05:01:07.543Z,6.30
2022-10-04T05:03:35.508Z,6.30
2022-10-04T05:06:04.948Z,6.30
2022-10-04T05:08:40.288Z,6.20
2022-10-04T05:11:16.012Z,6.20
2022-10-04T05:13:48.844Z,6.20
2022-10-04T05:16:20.615Z,6.20
2022-10-04T05:18:49.108Z,6.20
2022-10-04T05:21:25.065Z,6.30
2022-10-04T05:23:53.145Z,6.30
2022-10-04T05:26:27.708Z,6.40
2022-10-04T05:29:00.236Z,6.40
2022-10-04T05:31:37.888Z,6.40
2022-10-04T05:34:18.960Z,6.50
2022-10-04T05:37:09.941Z,6.50
2022-10-04T05:39:44.368Z,6.60
2022-10-04T05:42:21.145Z,6.60
2022-10-04T05:44:53.294Z,6.60
2022-10-04T05:47:24.033Z,6.70
2022-10-04T05:49:53.877Z,6.70
2022-10-04T05:52:31.240Z,6.70
2022-10-04T05:55:23.070Z,6.80
2022-10-04T05:58:22.409Z,6.80
2022-10-04T06:01:10.360Z,6.80
2022-10-04T06:03:55.256Z,6.90
2022-10-04T06:06:28.559Z,6.90
2022-10-04T06:09:06.929Z,6.80
2022-10-04T06:11:49.395Z,6.90
2022-10-04T06:14:36.941Z,6.90
2022-10-04T06:17:24.334Z,6.90
2022-10-04T06:20:08.702Z,6.90
2022-10-04T06:22:44.490Z,6.90
2022-10-04T06:25:16.588Z,6.90
2022-10-04T06:27:50.524Z,7.00
2022-10-04T06:30:20.497Z,7.00
2022-10-04T06:33:16.508Z,7.10
2022-10-04T06:36:06.108Z,7.10
2022-10-04T06:39:04.212Z,7.10
2022-10-04T06:42:03.257Z,7.10
2022-10-04T06:44:48.859Z,7.20
2022-10-04T06:47:29.747Z,7.20
2022-10-04T06:50:07.490Z,7.30
2022-10-04T06:52:58.458Z,7.30
2022-10-04T06:55:46.184Z,7.40
2022-10-04T06:58:38.468Z,7.40
2022-10-04T07:01:17.172Z,7.50
2022-10-04T07:03:54.038Z,7.60
2022-10-04T07:06:28.633Z,7.60
2022-10-04T07:08:59.664Z,7.70
2022-10-04T07:11:32.394Z,7.80
2022-10-04T07:14:06.691Z,7.90
2022-10-04T07:16:40.381Z,8.00
2022-10-04T07:19:29.036Z,8.00
2022-10-04T07:22:05.502Z,8.10
2022-10-04T07:24:55.787Z,8.20
2022-10-04T07:27:28.653Z,8.30
2022-10-04T07:29:57.878Z,8.30
2022-10-04T07:32:29.237Z,8.40
2022-10-04T07:35:02.712Z,8.50
2022-10-04T07:37:35.490Z,8.60
2022-10-04T07:40:08.588Z,8.60
2022-10-04T07:42:47.805Z,8.70
2022-10-04T07:45:20.936Z,8.80
2022-10-04T07:47:49.033Z,8.90
2022-10-04T07:50:25.756Z,9.00
2022-10-04T07:53:00.484Z,9.10
2022-10-04T07:55:33.193Z,9.30
2022-10-04T07:58:15.445Z,9.40
2022-10-04T08:00:51.756Z,9.50
2022-10-04T08:03:35.920Z,9.60
2022-10-04T08:06:13.425Z,9.70
2022-10-04T08:09:01.577Z,9.80
2022-10-04T08:11:38.991Z,9.90
2022-10-04T08:14:21.979Z,10.00
2022-10-04T08:17:06.789Z,10.20
2022-10-04T08:19:45.575Z,10.30
2022-10-04T08:22:23.477Z,10.40
2022-10-04T08:25:02.344Z,10.50
2022-10-04T08:28:04.760Z,10.70
2022-10-04T08:30:51.382Z,11.10
2022-10-04T08:33:32.337Z,11.70
2022-10-04T08:36:10.625Z,12.30
2022-10-04T08:38:47.662Z,12.80
2022-10-04T08:42:01.750Z,13.20
2022-10-04T08:45:09.960Z,13.60
2022-10-04T08:48:11.326Z,13.70
2022-10-04T08:51:06.697Z,14.00
2022-10-04T08:54:13.326Z,14.30
2022-10-04T08:56:58.053Z,14.30
2022-10-04T08:59:51.259Z,14.20
2022-10-04T09:03:01.258Z,14.70
2022-10-04T09:06:01.180Z,15.30
2022-10-04T09:09:05.357Z,15.30
2022-10-04T09:11:54.290Z,15.50
2022-10-04T09:14:51.400Z,15.70
2022-10-04T09:17:28.477Z,15.50
2022-10-04T09:20:26.304Z,15.40
2022-10-04T09:22:57.795Z,15.50
2022-10-04T09:25:49.085Z,15.40
2022-10-04T09:29:03.900Z,15.20
2022-10-04T09:32:07.791Z,15.30
2022-10-04T09:34:47.828Z,15.50
2022-10-04T09:37:34.066Z,15.80
2022-10-04T09:40:31.790Z,16.10
2022-10-04T09:43:19.121Z,16.60
2022-10-04T09:46:17.053Z,17.30
2022-10-04T09:49:04.841Z,17.60
2022-10-04T09:52:01.733Z,17.80
2022-10-04T09:54:54.984Z,17.80
2022-10-04T09:57:33.441Z,18.00
2022-10-04T10:04:39.704Z,18.60
2022-10-04T10:07:35.478Z,19.10
2022-10-04T10:10:34.570Z,19.30
2022-10-04T10:13:42.848Z,19.10
2022-10-04T10:16:39.019Z,18.80
2022-10-04T10:19:58.103Z,18.60
2022-10-04T10:22:58.645Z,18.50
2022-10-04T10:25:41.464Z,18.60
2022-10-04T10:28:29.035Z,18.70
2022-10-04T10:31:15.021Z,18.80
2022-10-04T10:34:08.785Z,18.90
2022-10-04T10:36:48.047Z,19.00
2022-10-04T10:40:00.157Z,18.90
2022-10-04T10:42:51.820Z,18.70
2022-10-04T10:45:29.778Z,18.40
2022-10-04T10:48:09.201Z,18.30
2022-10-04T10:51:10.765Z,18.40
2022-10-04T10:54:21.112Z,18.40
2022-10-04T10:57:00.949Z,18.40
2022-10-04T11:00:09.353Z,18.50
2022-10-04T11:03:23.277Z,18.50
2022-10-04T11:06:17.204Z,18.50
2022-10-04T11:09:11.953Z,18.60
2022-10-04T11:11:58.375Z,18.50
2022-10-04T11:14:48.465Z,18.40
2022-10-04T11:17:35.592Z,18.40
2022-10-04T11:20:26.350Z,18.30
2022-10-04T11:23:27.961Z,18.40
2022-10-04T11:26:29.762Z,18.40
2022-10-04T11:29:09.221Z,18.20
2022-10-04T11:31:54.800Z,18.20
2022-10-04T11:35:11.869Z,18.30
2022-10-04T11:38:02.296Z,18.40
2022-10-04T11:40:40.156Z,18.50
2022-10-04T11:43:25.715Z,18.50
2022-10-04T11:46:13.972Z,18.40
2022-10-04T11:48:54.754Z,18.50
2022-10-04T11:52:02.342Z,18.50
2022-10-04T11:55:13.325Z,18.80
2022-10-04T11:57:48.008Z,19.00
2022-10-04T12:00:20.803Z,19.00
2022-10-04T12:03:18.759Z,18.90
2022-10-04T12:06:03.766Z,18.90
2022-10-04T12:08:42.341Z,18.90
2022-10-04T12:12:17.414Z,19.00
2022-10-04T12:15:04.249Z,19.20
2022-10-04T12:17:58.489Z,19.30
2022-10-04T12:20:53.545Z,19.50
2022-10-04T12:23:51.608Z,19.70
2022-10-04T12:26:37.065Z,19.80
2022-10-04T12:29:33.677Z,19.80
2022-10-04T12:32:07.828Z,19.90
2022-10-04T12:34:45.390Z,20.00
2022-10-04T12:37:25.768Z,20.10
2022-10-04T12:40:22.585Z,20.00
2022-10-04T12:42:58.652Z,19.80
2022-10-04T12:45:48.243Z,19.70
2022-10-04T12:48:27.521Z,19.70
2022-10-04T12:51:05.117Z,19.70
2022-10-04T12:53:44.953Z,19.60
2022-10-04T12:56:21.790Z,19.50
2022-10-04T12:59:27.217Z,19.40
2022-10-04T13:02:06.806Z,19.20
2022-10-04T13:04:39.147Z,19.10
2022-10-04T13:07:31.691Z,19.00
2022-10-04T13:10:24.966Z,19.10
2022-10-04T13:13:55.241Z,19.20
2022-10-04T13:19:36.709Z,19.40
2022-10-04T13:22:44.348Z,19.30
2022-10-04T13:25:24.877Z,18.90
2022-10-04T13:28:01.048Z,18.60
2022-10-04T13:30:36.805Z,18.40
2022-10-04T13:33:17.878Z,18.50
2022-10-04T13:35:54.465Z,18.60
2022-10-04T13:39:11.098Z,18.50
2022-10-04T13:41:55.701Z,18.50
2022-10-04T13:44:36.682Z,18.40
2022-10-04T13:47:23.772Z,18.40
2022-10-04T13:50:05.236Z,18.50
2022-10-04T13:53:04.149Z,18.50
2022-10-04T13:55:54.634Z,18.50
2022-10-04T13:58:34.261Z,18.50
2022-10-04T14:01:29.635Z,18.50
2022-10-04T14:04:14.680Z,18.50
2022-10-04T14:07:18.959Z,18.30
2022-10-04T14:10:28.569Z,18.00
2022-10-04T14:13:42.942Z,17.80
2022-10-04T14:16:41.561Z,17.50
2022-10-04T14:19:41.228Z,17.40
2022-10-04T14:22:38.852Z,17.30
2022-10-04T14:25:40.013Z,17.20
2022-10-04T14:28:46.372Z,17.20
2022-10-04T14:31:33.287Z,17.20
2022-10-04T14:34:40.230Z,17.20
2022-10-04T14:37:40.780Z,17.20
2022-10-04T14:40:36.542Z,17.10
2022-10-04T14:43:23.953Z,17.10
2022-10-04T14:46:10.081Z,17.00
2022-10-04T14:49:00.802Z,17.00
2022-10-04T14:51:51.452Z,16.90
2022-10-04T14:54:35.137Z,16.90
2022-10-04T14:57:08.382Z,16.90
2022-10-04T14:59:59.958Z,16.80
2022-10-04T15:02:50.350Z,16.80
2022-10-04T15:05:31.611Z,16.70
2022-10-04T15:08:25.281Z,16.70
2022-10-04T15:10:56.549Z,16.60
2022-10-04T15:13:30.209Z,16.60
2022-10-04T15:16:14.522Z,16.60
2022-10-04T15:18:54.439Z,16.60
2022-10-04T15:21:36.305Z,16.60
2022-10-04T15:24:24.002Z,16.60
2022-10-04T15:27:04.953Z,16.60
2022-10-04T15:29:45.525Z,16.60
2022-10-04T15:32:28.958Z,16.60
2022-10-04T15:35:15.530Z,16.60
2022-10-04T15:37:48.271Z,16.50
2022-10-04T15:40:46.426Z,16.50
2022-10-04T15:43:34.752Z,16.40
2022-10-04T15:46:20.878Z,16.40
2022-10-04T15:48:57.733Z,16.40
2022-10-04T15:51:44.382Z,16.30
2022-10-04T15:54:34.793Z,16.20
2022-10-04T15:57:19.295Z,16.10
2022-10-04T15:59:53.432Z,16.00
2022-10-04T16:02:48.534Z,15.90
2022-10-04T16:05:30.279Z,15.80
2022-10-04T16:08:17.449Z,15.70
2022-10-04T16:11:09.205Z,15.50
2022-10-04T16:13:47.320Z,15.40
2022-10-04T16:16:58.368Z,15.30
2022-10-04T16:19:48.975Z,15.20
2022-10-04T16:22:19.200Z,15.10
2022-10-04T16:24:51.142Z,15.10
2022-10-04T16:27:45.939Z,15.10
2022-10-04T16:30:28.442Z,15.00
2022-10-04T16:33:31.180Z,15.00
2022-10-04T16:36:11.809Z,14.90
2022-10-04T16:39:07.437Z,14.90
2022-10-04T16:41:44.092Z,14.80
2022-10-04T16:44:28.817Z,14.80
2022-10-04T16:47:01.039Z,14.70
2022-10-04T16:49:40.229Z,14.60
2022-10-04T16:52:47.919Z,14.50
2022-10-04T16:55:39.748Z,14.40
2022-10-04T16:58:50.678Z,14.30
2022-10-04T17:01:45.517Z,14.20
2022-10-04T17:04:39.148Z,14.10
2022-10-04T17:07:19.636Z,14.00
2022-10-04T17:09:49.515Z,13.90
2022-10-04T17:12:20.946Z,13.90
2022-10-04T17:15:24.582Z,13.80
2022-10-04T17:18:01.115Z,13.70
2022-10-04T17:20:40.109Z,13.60
2022-10-04T17:23:22.328Z,13.60
2022-10-04T17:26:00.172Z,13.50
2022-10-04T17:28:31.176Z,13.40
2022-10-04T17:31:10.025Z,13.40
2022-10-04T17:33:50.298Z,13.40
2022-10-04T17:36:37.426Z,13.40
2022-10-04T17:39:34.921Z,13.40
2022-10-04T17:42:24.286Z,13.30
2022-10-04T17:45:07.677Z,13.30
2022-10-04T17:47:59.632Z,13.20
2022-10-04T17:50:52.208Z,13.20
2022-10-04T17:53:43.188Z,13.10
2022-10-04T17:56:13.265Z,13.00
2022-10-04T17:58:45.529Z,13.00
2022-10-04T18:01:17.353Z,12.90
2022-10-04T18:03:52.273Z,12.90
2022-10-04T18:06:30.627Z,12.80
2022-10-04T18:09:01.581Z,12.80
2022-10-04T18:11:35.662Z,12.70
2022-10-04T18:14:10.641Z,12.50
2022-10-04T18:16:49.915Z,12.30
2022-10-04T18:19:38.371Z,12.20
2022-10-04T18:22:14.811Z,12.00
2022-10-04T18:24:44.601Z,11.80
2022-10-04T18:27:19.454Z,11.60
2022-10-04T18:30:00.207Z,11.40
2022-10-04T18:32:36.217Z,11.20
2022-10-04T18:35:22.686Z,11.00
2022-10-04T18:37:51.101Z,10.90
2022-10-04T18:40:21.030Z,10.70
2022-10-04T18:42:54.551Z,10.60
2022-10-04T18:45:28.191Z,10.50
2022-10-04T18:47:57.723Z,10.40
2022-10-04T18:50:34.504Z,10.40
2022-10-04T18:53:34.585Z,10.40
2022-10-04T18:56:05.548Z,10.30
2022-10-04T18:59:19.418Z,10.30
2022-10-04T19:02:03.172Z,10.20
2022-10-04T19:04:42.664Z,10.20
2022-10-04T19:07:14.395Z,10.20
2022-10-04T19:10:09.334Z,10.20
2022-10-04T19:12:47.313Z,10.20
2022-10-04T19:15:27.844Z,10.30
2022-10-04T19:18:06.092Z,10.30
2022-10-04T19:20:41.140Z,10.20
2022-10-04T19:23:20.776Z,10.20
2022-10-04T19:26:16.281Z,10.20
2022-10-04T19:28:40.373Z,10.10
2022-10-04T19:31:18.803Z,10.10
2022-10-04T19:33:51.663Z,10.00
2022-10-04T19:36:33.885Z,10.10
2022-10-04T19:39:22.819Z,10.10
2022-10-04T19:41:58.197Z,10.10
2022-10-04T19:44:36.753Z,10.00
2022-10-04T19:47:13.264Z,10.00
2022-10-04T19:49:51.022Z,10.00
2022-10-04T19:52:27.440Z,9.90
2022-10-04T19:55:02.625Z,9.90
2022-10-04T19:57:37.952Z,9.90
2022-10-04T20:00:11.447Z,9.90
2022-10-04T20:02:42.608Z,9.80
2022-10-04T20:05:15.727Z,9.80
2022-10-04T20:07:50.369Z,9.80
2022-10-04T20:10:33.536Z,9.80
2022-10-04T20:13:24.909Z,9.70
2022-10-04T20:16:38.412Z,9.70
2022-10-04T20:19:16.872Z,9.70
2022-10-04T20:21:44.850Z,9.60
2022-10-04T20:24:18.441Z,9.50
2022-10-04T20:26:56.043Z,9.50
2022-10-04T20:30:04.161Z,9.50
2022-10-04T20:32:54.724Z,9.40
2022-10-04T20:36:09.478Z,9.40
2022-10-04T20:38:55.608Z,9.40
2022-10-04T20:42:17.293Z,9.20
2022-10-04T20:44:55.750Z,9.10
2022-10-04T20:47:39.609Z,9.10
2022-10-04T20:50:20.904Z,9.10
2022-10-04T20:52:50.789Z,9.10
2022-10-04T20:55:24.156Z,9.00
2022-10-04T20:57:51.995Z,9.00
2022-10-04T21:00:25.513Z,9.00
2022-10-04T21:03:09.309Z,8.90
2022-10-04T21:05:37.873Z,9.00
2022-10-04T21:08:21.081Z,8.90
2022-10-04T21:11:20.945Z,8.90
2022-10-04T21:13:51.872Z,8.90
2022-10-04T21:16:52.575Z,8.80
2022-10-04T21:19:51.217Z,8.80
2022-10-04T21:22:38.894Z,8.70
2022-10-04T21:25:33.310Z,8.60
2022-10-04T21:28:23.528Z,8.60
2022-10-04T21:30:51.400Z,8.60
2022-10-04T21:33:20.471Z,8.50
2022-10-04T21:35:51.297Z,8.50
2022-10-04T21:38:19.091Z,8.50
2022-10-04T21:40:46.841Z,8.40
2022-10-04T21:43:14.629Z,8.40
2022-10-04T21:45:42.720Z,8.40
2022-10-04T21:48:10.532Z,8.30
2022-10-04T21:50:39.669Z,8.30
2022-10-04T21:53:07.450Z,8.40
2022-10-04T21:55:35.201Z,8.40
2022-10-04T21:58:02.937Z,8.40
2022-10-04T22:00:30.690Z,8.50
2022-10-04T22:02:58.430Z,8.50
2022-10-04T22:05:26.234Z,8.50
2022-10-04T22:07:55.318Z,8.50
2022-10-04T22:10:23.074Z,8.40
2022-10-04T22:12:50.877Z,8.50
2022-10-04T22:15:18.777Z,8.50
2022-10-04T22:17:46.523Z,8.50
2022-10-04T22:20:14.235Z,8.60
2022-10-04T22:22:41.985Z,8.50
2022-10-04T22:25:17.037Z,8.50
2022-10-04T22:27:45.200Z,8.40
2022-10-04T22:30:21.258Z,8.30
2022-10-04T22:32:49.351Z,8.20
2022-10-04T22:35:20.975Z,8.20
2022-10-04T22:37:50.379Z,8.10
2022-10-04T22:40:21.899Z,8.10
2022-10-04T22:42:52.161Z,8.10
2022-10-04T22:45:25.928Z,8.10
2022-10-04T22:47:56.084Z,8.10
2022-10-04T22:50:29.928Z,8.10
2022-10-04T22:52:57.977Z,8.10
2022-10-04T22:55:27.173Z,8.10
2022-10-04T22:57:55.704Z,8.10
2022-10-04T23:00:23.435Z,8.00
2022-10-04T23:02:51.263Z,8.10
2022-10-04T23:05:20.544Z,8.10
2022-10-04T23:07:49.501Z,8.20
2022-10-04T23:10:20.373Z,8.20
2022-10-04T23:12:50.668Z,8.30
2022-10-04T23:15:20.204Z,8.40
2022-10-04T23:17:54.693Z,8.40
2022-10-04T23:20:23.359Z,8.50
2022-10-04T23:22:52.789Z,8.60
2022-10-04T23:25:24.152Z,8.60
2022-10-04T23:27:53.421Z,8.70
2022-10-04T23:30:23.159Z,8.80
2022-10-04T23:32:54.203Z,8.60
2022-10-04T23:35:24.742Z,8.60
2022-10-04T23:37:53.478Z,8.50
2022-10-04T23:40:23.057Z,8.40
2022-10-04T23:42:54.797Z,8.30
2022-10-04T23:45:24.644Z,8.30
2022-10-04T23:47:54.868Z,8.30
2022-10-04T23:50:26.265Z,8.30
2022-10-04T23:52:57.997Z,8.30
2022-10-04T23:55:29.880Z,8.30
2022-10-04T23:58:00.899Z,8.30
